Time;durP1;ratioP1;P1;durP2;ratioP2;P2;SDS_P1;SDS_P2;PMS_P1;PMS_P2;Temp;Humidity;BMP_temperature;BMP_pressure;BME280_temperature;BME280_humidity;BME280_pressure;Samples;Min_cycle;Max_cycle;Signal;HPM_P1;HPM_P2
2022/04/15 00:01:57;;;;;;;22.63;17.63;;;11.50;99.90;;;;;;5092819;28;20799;-74
2022/04/15 00:04:24;;;;;;;24.47;19.20;;;11.50;99.90;;;;;;5093144;28;20461;-74
2022/04/15 00:06:51;;;;;;;20.33;16.93;;;11.50;99.90;;;;;;5092972;28;20461;-74
2022/04/15 00:09:19;;;;;;;24.03;19.40;;;11.50;99.90;;;;;;5092541;28;20488;-73
2022/04/15 00:11:46;;;;;;;26.47;19.33;;;11.40;99.90;;;;;;5093143;28;20500;-73
2022/04/15 00:14:13;;;;;;;23.60;20.07;;;11.40;99.90;;;;;;5092652;28;20898;-73
2022/04/15 00:16:43;;;;;;;27.40;19.37;;;11.40;99.90;;;;;;5092409;28;20511;-74
2022/04/15 00:19:11;;;;;;;22.97;18.87;;;11.40;99.90;;;;;;5092689;28;20457;-74
2022/04/15 00:21:38;;;;;;;25.03;20.53;;;11.40;99.90;;;;;;5093020;28;20484;-73
2022/04/15 00:24:05;;;;;;;24.97;18.50;;;11.40;99.90;;;;;;5092853;28;20506;-74
2022/04/15 00:26:34;;;;;;;24.03;19.53;;;11.30;99.90;;;;;;5092523;28;20457;-74
2022/04/15 00:29:00;;;;;;;22.03;18.53;;;11.30;99.90;;;;;;5092715;28;20453;-73
2022/04/15 00:31:27;;;;;;;26.70;18.70;;;11.30;99.90;;;;;;5092624;28;20464;-73
2022/04/15 00:33:54;;;;;;;22.13;18.53;;;11.30;99.90;;;;;;5092750;28;20809;-73
2022/04/15 00:36:21;;;;;;;23.13;18.90;;;11.30;99.90;;;;;;5092762;28;20460;-73
2022/04/15 00:38:47;;;;;;;25.00;19.40;;;11.30;99.90;;;;;;5094222;28;20944;-74
2022/04/15 00:41:15;;;;;;;22.40;18.40;;;11.30;99.90;;;;;;5096240;28;20477;-73
2022/04/15 00:43:43;;;;;;;24.20;18.30;;;11.30;99.90;;;;;;5095771;28;20457;-73
2022/04/15 00:46:11;;;;;;;21.20;17.17;;;11.30;99.90;;;;;;5096090;28;20788;-74
2022/04/15 00:48:38;;;;;;;21.93;16.77;;;11.30;99.90;;;;;;5096048;28;20480;-74
2022/04/15 00:51:05;;;;;;;20.00;16.63;;;11.30;99.90;;;;;;5096059;28;20940;-73
2022/04/15 00:53:33;;;;;;;18.50;15.67;;;11.30;99.90;;;;;;5096145;28;20840;-74
2022/04/15 00:56:03;;;;;;;21.43;16.60;;;11.30;99.90;;;;;;5095490;28;20815;-73
2022/04/15 00:58:32;;;;;;;17.37;13.90;;;11.30;99.90;;;;;;5095633;28;20914;-74
2022/04/15 01:01:01;;;;;;;19.67;16.73;;;11.20;99.90;;;;;;5095947;28;20515;-74
2022/04/15 01:03:29;;;;;;;18.50;14.73;;;11.30;99.90;;;;;;5095560;28;20519;-74
2022/04/15 01:05:59;;;;;;;21.70;15.03;;;11.30;99.90;;;;;;5096100;28;20461;-74
2022/04/15 01:08:29;;;;;;;20.63;15.00;;;11.20;99.90;;;;;;5095955;28;20449;-74
2022/04/15 01:10:58;;;;;;;17.67;13.50;;;11.20;99.90;;;;;;5095633;28;20527;-74
2022/04/15 01:13:26;;;;;;;16.50;14.20;;;11.20;99.90;;;;;;5095602;28;20461;-74
2022/04/15 01:15:55;;;;;;;17.03;15.23;;;11.10;99.90;;;;;;5095531;28;20464;-74
2022/04/15 01:18:23;;;;;;;20.30;14.33;;;11.10;99.90;;;;;;5094565;28;20914;-73
2022/04/15 01:20:51;;;;;;;18.90;15.73;;;11.10;99.90;;;;;;5094697;28;20578;-74
2022/04/15 01:23:20;;;;;;;16.30;14.20;;;11.10;99.90;;;;;;5095528;28;20816;-74
2022/04/15 01:25:48;;;;;;;19.30;14.67;;;11.10;99.90;;;;;;5095627;28;20783;-73
2022/04/15 01:28:16;;;;;;;17.57;13.23;;;11.10;99.90;;;;;;5094207;28;20889;-74
2022/04/15 01:30:45;;;;;;;18.50;12.33;;;11.00;99.90;;;;;;5095473;28;20465;-74
2022/04/15 01:33:11;;;;;;;17.13;11.20;;;11.00;99.90;;;;;;5095288;28;20540;-74
2022/04/15 01:35:38;;;;;;;14.37;12.83;;;10.90;99.90;;;;;;5095307;28;20488;-74
2022/04/15 01:38:07;;;;;;;13.70;11.90;;;10.80;99.90;;;;;;5095192;28;20925;-74
2022/04/15 01:40:36;;;;;;;10.33;9.30;;;10.80;99.90;;;;;;5095278;28;20468;-74
2022/04/15 01:43:03;;;;;;;12.80;10.67;;;10.70;99.90;;;;;;5095220;28;20505;-74
2022/04/15 01:45:30;;;;;;;10.53;9.43;;;10.60;99.90;;;;;;5095122;28;20510;-74
2022/04/15 01:47:57;;;;;;;11.53;9.27;;;10.60;99.90;;;;;;5095187;28;20752;-73
2022/04/15 01:50:24;;;;;;;11.33;9.20;;;10.60;99.90;;;;;;5093549;28;20468;-73
2022/04/15 01:52:51;;;;;;;11.50;9.80;;;10.40;99.90;;;;;;5093657;28;20487;-73
2022/04/15 01:55:18;;;;;;;12.60;9.13;;;10.40;99.90;;;;;;5093610;28;20481;-73
2022/04/15 01:57:46;;;;;;;13.97;9.20;;;10.20;99.90;;;;;;5094261;28;20457;-73
2022/04/15 02:00:13;;;;;;;14.57;9.30;;;10.10;99.90;;;;;;5094502;28;20724;-73
2022/04/15 02:02:40;;;;;;;13.10;8.77;;;10.00;99.90;;;;;;5094752;28;20481;-73
2022/04/15 02:05:09;;;;;;;9.80;8.33;;;9.90;99.90;;;;;;5094379;28;20449;-74
2022/04/15 02:07:36;;;;;;;12.03;8.30;;;9.80;99.90;;;;;;5094552;28;20449;-73
2022/04/15 02:10:03;;;;;;;9.70;8.40;;;9.60;99.90;;;;;;5094059;28;20766;-74
2022/04/15 02:12:29;;;;;;;10.40;8.97;;;9.50;99.90;;;;;;5094683;28;20453;-74
2022/04/15 02:14:57;;;;;;;13.27;9.07;;;9.40;99.90;;;;;;5094791;28;20457;-74
2022/04/15 02:17:24;;;;;;;10.00;8.97;;;9.40;99.90;;;;;;5093841;28;20918;-74
2022/04/15 02:19:52;;;;;;;10.03;9.03;;;9.30;99.90;;;;;;5094191;28;20928;-74
2022/04/15 02:22:19;;;;;;;14.30;11.43;;;9.30;99.90;;;;;;5094529;28;20587;-73
2022/04/15 02:24:45;;;;;;;11.73;9.10;;;9.30;99.90;;;;;;5094029;28;20464;-74
2022/04/15 02:27:12;;;;;;;9.63;8.73;;;9.30;99.90;;;;;;5093985;28;20526;-74
2022/04/15 02:29:39;;;;;;;9.03;8.10;;;9.30;99.90;;;;;;5093894;28;20453;-74
2022/04/15 02:32:08;;;;;;;11.77;9.77;;;9.30;99.90;;;;;;5092720;28;20480;-74
2022/04/15 02:34:35;;;;;;;10.77;9.10;;;9.30;99.90;;;;;;5092289;28;20785;-74
2022/04/15 02:37:02;;;;;;;11.17;8.53;;;9.20;99.90;;;;;;5092211;28;20480;-74
2022/04/15 02:39:28;;;;;;;10.90;9.20;;;9.20;99.90;;;;;;5093460;28;20457;-74
2022/04/15 02:41:56;;;;;;;13.07;10.00;;;9.10;99.90;;;;;;5093545;28;20481;-74
2022/04/15 02:44:23;;;;;;;13.53;9.47;;;9.10;99.90;;;;;;5093526;28;20553;-74
2022/04/15 02:46:50;;;;;;;10.63;9.47;;;9.10;99.90;;;;;;5093530;28;20457;-74
2022/04/15 02:49:18;;;;;;;13.93;10.03;;;9.00;99.90;;;;;;5094230;28;20812;-74
2022/04/15 02:51:44;;;;;;;13.07;10.30;;;8.90;99.90;;;;;;5094657;28;20465;-74
2022/04/15 02:54:11;;;;;;;13.63;10.60;;;8.90;99.90;;;;;;5094708;28;20522;-73
2022/04/15 02:56:38;;;;;;;14.07;10.37;;;9.00;99.90;;;;;;5094832;28;20496;-74
2022/04/15 02:59:04;;;;;;;12.77;9.93;;;9.00;99.90;;;;;;5094971;28;20453;-74
2022/04/15 03:01:31;;;;;;;10.40;9.10;;;9.00;99.90;;;;;;5093996;28;20457;-74
2022/04/15 03:03:58;;;;;;;10.97;9.80;;;9.00;99.90;;;;;;5095342;28;20461;-74
2022/04/15 03:06:26;;;;;;;11.00;9.23;;;9.00;99.90;;;;;;5094603;28;20469;-74
2022/04/15 03:08:54;;;;;;;10.30;8.93;;;9.00;99.90;;;;;;5094870;28;20457;-74
2022/04/15 03:11:20;;;;;;;11.37;9.67;;;9.00;99.90;;;;;;5094439;28;20462;-74
2022/04/15 03:13:47;;;;;;;10.43;8.53;;;9.00;99.90;;;;;;5094704;28;20898;-74
2022/04/15 03:16:14;;;;;;;11.23;9.67;;;9.00;99.90;;;;;;5094112;28;20489;-74
2022/04/15 03:18:41;;;;;;;11.83;9.40;;;8.90;99.90;;;;;;5093097;28;20457;-74
2022/04/15 03:21:08;;;;;;;12.57;8.60;;;8.90;99.90;;;;;;5093199;28;20508;-74
2022/04/15 03:23:36;;;;;;;11.77;9.43;;;8.90;99.90;;;;;;5092841;28;21067;-74
2022/04/15 03:26:03;;;;;;;10.63;8.33;;;8.90;99.90;;;;;;5093228;28;20467;-74
2022/04/15 03:28:29;;;;;;;10.03;8.73;;;8.90;99.90;;;;;;5092559;28;20946;-74
2022/04/15 03:30:56;;;;;;;10.10;8.77;;;8.90;99.90;;;;;;5093250;28;20786;-74
2022/04/15 03:33:23;;;;;;;11.10;9.00;;;8.90;99.90;;;;;;5092826;28;20950;-74
2022/04/15 03:35:49;;;;;;;11.10;8.90;;;8.90;99.90;;;;;;5092773;28;20464;-74
2022/04/15 03:38:16;;;;;;;11.10;8.70;;;9.00;99.90;;;;;;5092097;28;20453;-74
2022/04/15 03:40:44;;;;;;;11.50;9.20;;;9.00;99.90;;;;;;5091470;28;20577;-75
2022/04/15 03:43:11;;;;;;;11.70;9.53;;;8.90;99.90;;;;;;5091308;28;21094;-74
2022/04/15 03:45:37;;;;;;;13.77;10.17;;;8.90;99.90;;;;;;5091530;28;20457;-74
2022/04/15 03:48:05;;;;;;;10.63;9.53;;;8.90;99.90;;;;;;5091150;28;20458;-74
2022/04/15 03:50:31;;;;;;;13.53;9.87;;;9.00;99.90;;;;;;5091337;28;20511;-74
2022/04/15 03:52:58;;;;;;;13.43;9.63;;;9.00;99.90;;;;;;5091259;28;20457;-74
2022/04/15 03:55:25;;;;;;;12.93;9.77;;;9.10;99.90;;;;;;5091304;28;20503;-74
2022/04/15 03:57:53;;;;;;;11.30;10.10;;;9.10;99.90;;;;;;5091367;28;20441;-74
2022/04/15 04:00:21;;;;;;;12.40;10.10;;;9.00;99.90;;;;;;5091343;28;20457;-74
2022/04/15 04:02:49;;;;;;;14.73;10.60;;;9.00;99.90;;;;;;5091611;28;20580;-74
2022/04/15 04:05:16;;;;;;;12.80;10.27;;;9.00;99.90;;;;;;5091434;28;20476;-74
2022/04/15 04:07:44;;;;;;;13.73;9.93;;;9.00;99.90;;;;;;5091286;28;20457;-74
2022/04/15 04:10:12;;;;;;;12.17;10.07;;;9.10;99.90;;;;;;5091013;28;20806;-74
2022/04/15 04:12:39;;;;;;;16.43;10.47;;;9.00;99.90;;;;;;5091339;28;20453;-75
2022/04/15 04:15:08;;;;;;;13.20;10.77;;;9.00;99.90;;;;;;5095188;28;20456;-74
2022/04/15 04:17:36;;;;;;;14.50;11.70;;;9.00;99.90;;;;;;5095153;28;20464;-72
2022/04/15 04:20:03;;;;;;;12.40;11.07;;;8.90;99.90;;;;;;5094926;28;20453;-74
2022/04/15 04:22:31;;;;;;;14.03;10.60;;;9.00;99.90;;;;;;5095114;28;20472;-74
2022/04/15 04:24:57;;;;;;;11.90;10.50;;;8.90;99.90;;;;;;5094845;28;20468;-74
2022/04/15 04:27:25;;;;;;;13.40;11.47;;;9.00;99.90;;;;;;5094958;28;20465;-73
2022/04/15 04:29:51;;;;;;;16.17;11.30;;;9.00;99.90;;;;;;5095012;28;20783;-73
2022/04/15 04:32:20;;;;;;;17.30;10.80;;;8.90;99.90;;;;;;5095017;28;20449;-74
2022/04/15 04:34:48;;;;;;;15.20;11.00;;;8.90;99.90;;;;;;5095071;28;20457;-74
2022/04/15 04:37:15;;;;;;;12.87;10.90;;;9.00;99.90;;;;;;5095107;28;20654;-74
2022/04/15 04:39:41;;;;;;;12.53;10.47;;;9.00;99.90;;;;;;5095035;28;20464;-74
2022/04/15 04:42:09;;;;;;;11.50;9.87;;;9.00;99.90;;;;;;5095064;28;20454;-74
2022/04/15 04:44:37;;;;;;;15.17;11.00;;;9.00;99.90;;;;;;5094923;28;20510;-75
2022/04/15 04:47:05;;;;;;;13.40;11.30;;;9.00;99.90;;;;;;5094324;28;20468;-74
2022/04/15 04:49:33;;;;;;;13.53;10.13;;;9.00;99.90;;;;;;5094725;28;20469;-73
2022/04/15 04:52:00;;;;;;;12.57;10.80;;;9.00;99.90;;;;;;5094883;28;20464;-73
2022/04/15 04:54:26;;;;;;;12.20;10.00;;;9.00;99.90;;;;;;5094607;28;20460;-74
2022/04/15 04:56:53;;;;;;;14.40;10.57;;;9.00;99.90;;;;;;5094122;28;20485;-74
2022/04/15 04:59:22;;;;;;;11.00;9.80;;;9.10;99.90;;;;;;5093977;28;20836;-74
2022/04/15 05:01:48;;;;;;;13.37;10.67;;;9.10;99.90;;;;;;5094672;28;20514;-74
2022/04/15 05:04:15;;;;;;;12.13;10.37;;;9.10;99.90;;;;;;5093861;28;20488;-74
2022/04/15 05:06:43;;;;;;;14.53;11.17;;;9.00;99.90;;;;;;5094084;28;20522;-74
2022/04/15 05:09:10;;;;;;;15.63;10.80;;;9.00;99.90;;;;;;5094240;28;20933;-74
2022/04/15 05:11:37;;;;;;;15.50;10.70;;;9.00;99.90;;;;;;5094567;28;20553;-73
2022/04/15 05:14:03;;;;;;;13.00;10.37;;;9.00;99.90;;;;;;5094489;28;20449;-73
2022/04/15 05:16:30;;;;;;;14.40;12.23;;;9.10;99.90;;;;;;5094288;28;20457;-74
2022/04/15 05:18:57;;;;;;;13.40;10.43;;;9.10;99.90;;;;;;5094011;28;20461;-74
2022/04/15 05:21:24;;;;;;;13.37;10.13;;;9.10;99.90;;;;;;5094230;28;20848;-74
2022/04/15 05:23:52;;;;;;;15.03;10.87;;;9.20;99.90;;;;;;5094294;28;20477;-74
2022/04/15 05:26:20;;;;;;;12.70;10.10;;;9.20;99.90;;;;;;5094131;28;20457;-74
2022/04/15 05:28:47;;;;;;;11.10;9.80;;;9.20;99.90;;;;;;5094913;28;20461;-75
2022/04/15 05:31:13;;;;;;;12.77;10.53;;;9.20;99.90;;;;;;5094594;28;20458;-73
2022/04/15 05:33:40;;;;;;;10.70;9.60;;;9.30;99.90;;;;;;5094980;28;20559;-74
2022/04/15 05:36:07;;;;;;;12.60;10.40;;;9.40;99.90;;;;;;5094863;28;20453;-74
2022/04/15 05:38:33;;;;;;;15.27;10.20;;;9.40;99.90;;;;;;5094860;28;20476;-74
2022/04/15 05:41:02;;;;;;;11.10;8.93;;;9.30;99.90;;;;;;5094503;28;20453;-73
2022/04/15 05:43:29;;;;;;;15.03;10.40;;;9.40;99.90;;;;;;5094264;28;20485;-73
2022/04/15 05:45:56;;;;;;;16.53;10.27;;;9.40;99.90;;;;;;5094718;28;20461;-73
2022/04/15 05:48:22;;;;;;;10.90;9.03;;;9.40;99.90;;;;;;5094511;28;20453;-73
2022/04/15 05:50:49;;;;;;;18.37;9.53;;;9.40;99.90;;;;;;5094691;28;20457;-73
2022/04/15 05:53:16;;;;;;;10.70;9.60;;;9.50;99.90;;;;;;5094187;28;20531;-73
2022/04/15 05:55:42;;;;;;;9.33;8.40;;;9.50;99.90;;;;;;5094285;28;20485;-73
2022/04/15 05:58:10;;;;;;;11.47;8.70;;;9.40;99.90;;;;;;5094501;28;20577;-73
2022/04/15 06:00:37;;;;;;;10.50;9.00;;;9.40;99.90;;;;;;5094420;28;20453;-73
2022/04/15 06:03:04;;;;;;;9.47;8.30;;;9.40;99.90;;;;;;5094504;28;20827;-73
2022/04/15 06:05:31;;;;;;;9.40;8.50;;;9.40;99.90;;;;;;5094103;28;21049;-74
2022/04/15 06:07:58;;;;;;;10.93;8.37;;;9.40;99.90;;;;;;5094304;28;20530;-74
2022/04/15 06:10:24;;;;;;;13.70;9.10;;;9.40;99.90;;;;;;5093691;28;20457;-74
2022/04/15 06:13:02;;;;;;;13.97;9.20;;;9.50;99.90;;;;;;5092891;28;20460;-74
2022/04/15 06:15:32;;;;;;;12.10;8.57;;;9.40;99.90;;;;;;5093276;28;20898;-74
2022/04/15 06:17:59;;;;;;;10.83;8.80;;;9.50;99.90;;;;;;5093236;28;20457;-74
2022/04/15 06:20:26;;;;;;;11.37;8.17;;;9.50;99.90;;;;;;5093229;28;20790;-74
2022/04/15 06:22:54;;;;;;;10.90;8.03;;;9.50;99.90;;;;;;5092957;28;20485;-73
2022/04/15 06:25:20;;;;;;;9.20;8.30;;;9.50;99.90;;;;;;5092719;28;20922;-74
2022/04/15 06:27:47;;;;;;;9.30;8.30;;;9.50;99.90;;;;;;5093204;28;20496;-75
2022/04/15 06:30:14;;;;;;;13.10;9.23;;;9.50;99.90;;;;;;5092676;28;20466;-74
2022/04/15 06:32:42;;;;;;;9.77;8.77;;;9.50;99.90;;;;;;5092518;28;20453;-74
2022/04/15 06:35:09;;;;;;;12.40;8.70;;;9.50;99.90;;;;;;5092575;28;20457;-74
2022/04/15 06:37:36;;;;;;;9.60;8.40;;;9.50;99.90;;;;;;5093350;28;20471;-74
2022/04/15 06:40:03;;;;;;;11.03;8.90;;;9.60;99.90;;;;;;5092661;28;20453;-74
2022/04/15 06:42:31;;;;;;;12.70;9.20;;;9.50;99.90;;;;;;5092456;28;20775;-74
2022/04/15 06:44:59;;;;;;;10.50;7.90;;;9.50;99.90;;;;;;5092236;28;20496;-74
2022/04/15 06:47:25;;;;;;;10.77;8.63;;;9.50;99.90;;;;;;5092563;28;20522;-74
2022/04/15 06:49:54;;;;;;;12.60;9.30;;;9.50;99.90;;;;;;5092421;28;20783;-74
2022/04/15 06:52:21;;;;;;;10.40;8.53;;;9.50;99.90;;;;;;5092390;28;20755;-74
2022/04/15 06:54:48;;;;;;;9.07;8.13;;;9.50;99.90;;;;;;5091896;28;20457;-74
2022/04/15 06:57:14;;;;;;;12.70;8.27;;;9.60;99.90;;;;;;5092712;28;20831;-74
2022/04/15 06:59:41;;;;;;;10.87;8.60;;;9.60;99.90;;;;;;5092458;28;20464;-74
2022/04/15 07:02:08;;;;;;;9.63;8.40;;;9.70;99.90;;;;;;5092510;28;20464;-74
2022/04/15 07:04:35;;;;;;;9.73;8.50;;;9.70;99.90;;;;;;5091927;28;20535;-73
2022/04/15 07:07:04;;;;;;;11.90;8.00;;;9.70;99.90;;;;;;5092068;28;20571;-74
2022/04/15 07:09:30;;;;;;;11.83;8.93;;;9.60;99.90;;;;;;5092870;28;20461;-74
2022/04/15 07:11:57;;;;;;;9.73;7.73;;;9.60;99.90;;;;;;5093151;28;20465;-73
2022/04/15 07:14:24;;;;;;;10.37;9.17;;;9.60;99.90;;;;;;5093021;28;20739;-74
2022/04/15 07:16:51;;;;;;;9.80;7.83;;;9.60;99.90;;;;;;5093313;28;20932;-74
2022/04/15 07:19:18;;;;;;;11.00;8.40;;;9.70;99.90;;;;;;5092717;28;20457;-74
2022/04/15 07:21:45;;;;;;;12.37;8.70;;;9.60;99.90;;;;;;5093346;28;20615;-74
2022/04/15 07:24:13;;;;;;;11.90;7.87;;;9.70;99.90;;;;;;5092920;28;20542;-74
2022/04/15 07:26:40;;;;;;;9.50;8.50;;;9.70;99.90;;;;;;5092557;28;20461;-74
2022/04/15 07:29:07;;;;;;;8.93;8.00;;;9.70;99.90;;;;;;5092957;28;20453;-74
2022/04/15 07:31:34;;;;;;;11.13;8.97;;;9.70;99.90;;;;;;5093225;28;20467;-74
2022/04/15 07:34:03;;;;;;;10.47;8.13;;;9.70;99.90;;;;;;5093086;28;20457;-74
2022/04/15 07:36:44;;;;;;;9.13;7.43;;;9.60;99.90;;;;;;5093686;28;20453;-73
2022/04/15 07:39:14;;;;;;;11.20;8.27;;;9.60;99.90;;;;;;5093384;28;20438;-74
2022/04/15 07:41:42;;;;;;;10.37;8.67;;;9.70;99.90;;;;;;5092851;28;20536;-74
2022/04/15 07:44:11;;;;;;;11.77;8.70;;;9.70;99.90;;;;;;5092888;28;20576;-73
2022/04/15 07:46:38;;;;;;;9.77;8.20;;;9.70;99.90;;;;;;5093275;28;20790;-73
2022/04/15 07:49:05;;;;;;;8.87;7.40;;;9.70;99.90;;;;;;5095155;28;20526;-74
2022/04/15 07:51:32;;;;;;;9.97;7.87;;;9.70;99.90;;;;;;5096837;28;20468;-74
2022/04/15 07:53:59;;;;;;;10.67;8.63;;;9.70;99.90;;;;;;5096709;28;20518;-74
2022/04/15 07:56:28;;;;;;;14.97;9.30;;;9.70;99.90;;;;;;5096843;28;20489;-74
2022/04/15 07:58:54;;;;;;;13.07;9.50;;;9.70;99.90;;;;;;5096351;28;20464;-74
2022/04/15 08:01:21;;;;;;;12.00;8.57;;;9.60;99.90;;;;;;5096642;28;20464;-74
2022/04/15 08:03:48;;;;;;;11.57;8.60;;;9.60;99.90;;;;;;5096520;28;20885;-73
2022/04/15 08:06:15;;;;;;;10.70;8.63;;;9.60;99.90;;;;;;5096231;28;20471;-74
2022/04/15 08:08:43;;;;;;;9.67;7.67;;;9.60;99.90;;;;;;5096613;28;20481;-74
2022/04/15 08:11:09;;;;;;;8.63;7.70;;;9.70;99.90;;;;;;5096459;28;20934;-73
2022/04/15 08:13:38;;;;;;;12.10;8.60;;;9.70;99.90;;;;;;5096439;28;20453;-73
2022/04/15 08:16:05;;;;;;;14.63;9.00;;;9.80;99.90;;;;;;5096936;28;20461;-73
2022/04/15 08:18:32;;;;;;;12.50;8.10;;;9.80;99.90;;;;;;5098299;28;20460;-73
2022/04/15 08:20:58;;;;;;;11.10;8.30;;;9.80;99.90;;;;;;5097084;28;20515;-74
2022/04/15 08:23:26;;;;;;;11.50;8.43;;;9.80;99.90;;;;;;5096579;28;20457;-74
2022/04/15 08:25:53;;;;;;;9.77;8.30;;;9.70;99.90;;;;;;5095781;28;20534;-74
2022/04/15 08:28:20;;;;;;;13.43;9.10;;;9.70;99.90;;;;;;5096107;28;20468;-73
2022/04/15 08:30:48;;;;;;;11.97;8.83;;;9.70;99.90;;;;;;5096301;28;20476;-72
2022/04/15 08:33:15;;;;;;;16.03;8.93;;;9.70;99.90;;;;;;5096136;28;20461;-73
2022/04/15 08:35:41;;;;;;;14.07;7.90;;;9.70;99.90;;;;;;5095986;28;20841;-74
2022/04/15 08:38:08;;;;;;;11.77;8.60;;;9.80;99.90;;;;;;5096060;28;20468;-74
2022/04/15 08:40:37;;;;;;;10.20;8.47;;;9.80;99.90;;;;;;5095872;28;20464;-73
2022/04/15 08:43:06;;;;;;;13.67;8.57;;;9.90;99.90;;;;;;5095941;28;20449;-74
2022/04/15 08:45:34;;;;;;;11.07;8.30;;;9.80;99.90;;;;;;5095817;28;20806;-73
2022/04/15 08:48:05;;;;;;;9.60;8.70;;;9.80;99.90;;;;;;5095768;28;20453;-72
2022/04/15 08:50:32;;;;;;;9.43;7.90;;;9.80;99.90;;;;;;5095881;28;20452;-74
2022/04/15 08:53:00;;;;;;;11.33;9.23;;;9.80;99.90;;;;;;5095460;28;20458;-73
2022/04/15 08:55:29;;;;;;;11.50;8.37;;;9.70;99.90;;;;;;5095400;28;21087;-74
2022/04/15 08:57:56;;;;;;;12.20;8.30;;;9.60;99.90;;;;;;5095527;28;20457;-73
2022/04/15 09:00:24;;;;;;;13.20;9.27;;;9.60;99.90;;;;;;5095771;28;20457;-73
2022/04/15 09:02:52;;;;;;;10.03;8.57;;;9.50;99.90;;;;;;5095678;28;20798;-73
2022/04/15 09:05:21;;;;;;;11.00;8.90;;;9.40;99.90;;;;;;5095117;28;20477;-74
2022/04/15 09:07:48;;;;;;;11.63;8.90;;;9.50;99.90;;;;;;5095403;28;20465;-74
2022/04/15 09:10:18;;;;;;;11.00;8.30;;;9.50;99.90;;;;;;5095105;28;20465;-74
2022/04/15 09:12:46;;;;;;;8.90;7.50;;;9.50;99.90;;;;;;5094943;28;20471;-73
2022/04/15 09:15:14;;;;;;;12.83;8.23;;;9.60;99.90;;;;;;5094664;28;20590;-74
2022/04/15 09:17:43;;;;;;;11.30;8.37;;;9.50;99.90;;;;;;5094670;28;20457;-74
2022/04/15 09:20:11;;;;;;;10.30;8.20;;;9.50;99.90;;;;;;5094688;28;20460;-74
2022/04/15 09:22:39;;;;;;;12.07;7.73;;;9.40;99.90;;;;;;5094826;28;20973;-74
2022/04/15 09:25:07;;;;;;;11.50;7.63;;;9.50;99.90;;;;;;5094896;28;20481;-74
2022/04/15 09:27:36;;;;;;;12.40;8.67;;;9.60;99.90;;;;;;5095000;28;20691;-73
2022/04/15 09:30:03;;;;;;;13.17;9.23;;;9.60;99.90;;;;;;5094943;28;20485;-73
2022/04/15 09:32:30;;;;;;;14.80;11.00;;;9.60;99.90;;;;;;5094796;28;20468;-73
2022/04/15 09:34:59;;;;;;;11.43;8.63;;;9.50;99.90;;;;;;5094872;28;20465;-73
2022/04/15 09:37:26;;;;;;;10.33;8.43;;;9.50;99.90;;;;;;5094996;28;20937;-74
2022/04/15 09:40:09;;;;;;;10.10;8.30;;;9.50;99.90;;;;;;5094345;28;20461;-73
2022/04/15 09:42:36;;;;;;;8.90;7.97;;;9.40;99.90;;;;;;5094440;28;20437;-73
2022/04/15 09:45:17;;;;;;;12.67;9.77;;;9.40;99.90;;;;;;5094799;28;20803;-73
2022/04/15 09:47:44;;;;;;;10.10;8.83;;;9.40;99.90;;;;;;5094819;28;20615;-73
2022/04/15 09:50:27;;;;;;;11.50;9.40;;;9.30;99.90;;;;;;5094394;28;20464;-75
2022/04/15 09:52:55;;;;;;;9.63;8.60;;;9.30;99.90;;;;;;5092695;28;20518;-72
2022/04/15 09:55:24;;;;;;;13.47;9.00;;;9.30;99.90;;;;;;5094205;28;20469;-73
2022/04/15 09:57:51;;;;;;;10.17;8.93;;;9.20;99.90;;;;;;5094321;28;20453;-73
2022/04/15 10:00:20;;;;;;;10.87;9.50;;;9.20;99.90;;;;;;5093985;28;20842;-73
2022/04/15 10:02:49;;;;;;;12.10;9.33;;;9.20;99.90;;;;;;5094340;28;20536;-73
2022/04/15 10:05:16;;;;;;;10.13;7.97;;;9.20;99.90;;;;;;5093919;28;20478;-73
2022/04/15 10:07:43;;;;;;;11.20;9.27;;;9.20;99.90;;;;;;5094395;28;20556;-73
2022/04/15 10:10:11;;;;;;;10.30;9.20;;;9.20;99.90;;;;;;5094418;28;20457;-72
2022/04/15 10:12:40;;;;;;;12.17;10.10;;;9.20;99.90;;;;;;5093434;28;20453;-75
2022/04/15 10:15:09;;;;;;;10.87;9.03;;;9.20;99.90;;;;;;5093799;28;20458;-73
2022/04/15 10:17:38;;;;;;;10.93;8.87;;;9.20;99.90;;;;;;5094200;28;20532;-73
2022/04/15 10:20:06;;;;;;;12.27;9.00;;;9.30;99.90;;;;;;5093638;28;20461;-74
2022/04/15 10:22:35;;;;;;;11.30;8.20;;;9.30;99.90;;;;;;5094361;28;20457;-74
2022/04/15 10:25:02;;;;;;;13.97;9.40;;;9.40;99.90;;;;;;5093720;28;20484;-74
2022/04/15 10:27:30;;;;;;;9.27;8.10;;;9.40;99.90;;;;;;5093609;28;20526;-73
2022/04/15 10:30:04;;;;;;;9.90;8.33;;;9.40;99.90;;;;;;5093532;28;21008;-74
2022/04/15 10:32:47;;;;;;;11.87;8.57;;;9.40;99.90;;;;;;5093902;28;20453;-74
2022/04/15 10:35:24;;;;;;;12.10;8.00;;;9.40;99.90;;;;;;5093530;28;20492;-74
2022/04/15 10:38:00;;;;;;;10.83;8.23;;;9.40;99.90;;;;;;5093529;28;20441;-73
2022/04/15 10:40:29;;;;;;;9.30;7.67;;;9.40;99.90;;;;;;5093452;28;20445;-73
2022/04/15 10:43:03;;;;;;;8.57;7.67;;;9.40;99.90;;;;;;5093461;28;20802;-74
2022/04/15 10:45:35;;;;;;;8.77;7.00;;;9.50;99.90;;;;;;5093657;28;20786;-74
2022/04/15 10:48:02;;;;;;;7.50;6.70;;;9.50;99.90;;;;;;5093250;28;20529;-73
2022/04/15 10:50:30;;;;;;;7.43;6.70;;;9.60;99.90;;;;;;5093228;28;20461;-73
2022/04/15 10:53:17;;;;;;;7.17;5.43;;;9.80;99.90;;;;;;5093018;28;20461;-73
2022/04/15 10:55:45;;;;;;;6.20;5.60;;;9.90;99.90;;;;;;5093283;28;20903;-74
2022/04/15 10:58:13;;;;;;;10.70;5.50;;;10.00;99.90;;;;;;5093310;28;20489;-74
2022/04/15 11:03:28;;;;;;;6.47;5.87;;;10.00;99.90;;;;;;5093185;28;20775;-73
2022/04/15 11:05:57;;;;;;;5.53;4.33;;;10.10;99.90;;;;;;5092758;28;20492;-74
2022/04/15 11:08:26;;;;;;;6.47;5.43;;;10.10;99.90;;;;;;5093015;28;20768;-74
2022/04/15 11:11:02;;;;;;;5.10;4.47;;;10.10;99.90;;;;;;5092972;28;20468;-73
2022/04/15 11:13:54;;;;;;;5.03;4.30;;;10.10;99.90;;;;;;5093199;28;20488;-73
2022/04/15 11:16:22;;;;;;;6.33;5.03;;;10.20;99.90;;;;;;5092642;28;20453;-73
2022/04/15 11:18:53;;;;;;;5.60;4.50;;;10.20;99.90;;;;;;5092810;28;20457;-74
2022/04/15 11:21:21;;;;;;;5.33;3.97;;;10.30;99.90;;;;;;5093018;28;20548;-73
2022/04/15 11:23:50;;;;;;;3.83;3.53;;;10.40;99.90;;;;;;5091836;28;20472;-73
2022/04/15 11:26:17;;;;;;;3.80;2.90;;;10.40;99.90;;;;;;5092891;28;20488;-74
2022/04/15 11:28:50;;;;;;;3.20;2.90;;;10.40;99.90;;;;;;5092930;28;20465;-74
2022/04/15 11:31:26;;;;;;;2.90;2.70;;;10.30;99.90;;;;;;5093201;28;20571;-74
2022/04/15 11:33:54;;;;;;;3.83;2.67;;;10.20;99.90;;;;;;5093096;28;20647;-74
2022/04/15 11:36:22;;;;;;;3.07;2.87;;;10.20;99.90;;;;;;5092886;28;20453;-74
2022/04/15 11:38:50;;;;;;;3.00;2.77;;;10.20;99.90;;;;;;5092642;28;20550;-74
2022/04/15 11:41:19;;;;;;;5.83;2.90;;;10.20;99.90;;;;;;5092907;28;20468;-74
2022/04/15 11:43:54;;;;;;;4.40;3.10;;;10.20;99.90;;;;;;5092712;28;20461;-77
2022/04/15 11:46:21;;;;;;;3.20;2.47;;;10.20;99.90;;;;;;5092714;28;20497;-73
2022/04/15 11:48:50;;;;;;;3.47;3.17;;;10.20;99.90;;;;;;5092960;28;20468;-74
2022/04/15 11:51:22;;;;;;;3.83;2.80;;;10.20;99.90;;;;;;5092590;28;20453;-73
2022/04/15 11:53:48;;;;;;;2.93;2.60;;;10.20;99.90;;;;;;5092647;28;20442;-73
2022/04/15 11:56:16;;;;;;;3.13;2.83;;;10.30;99.90;;;;;;5092490;28;20518;-74
2022/04/15 11:58:43;;;;;;;3.00;2.70;;;10.30;99.90;;;;;;5092936;28;20515;-74
2022/04/15 12:01:10;;;;;;;2.50;2.30;;;10.40;99.90;;;;;;5092603;28;20457;-74
2022/04/15 12:03:43;;;;;;;4.00;3.00;;;10.40;99.90;;;;;;5092345;28;20458;-74
2022/04/15 12:06:11;;;;;;;2.87;2.67;;;10.40;99.90;;;;;;5092644;28;20531;-74
2022/04/15 12:08:37;;;;;;;2.53;2.33;;;10.40;99.90;;;;;;5092642;28;20467;-74
2022/04/15 12:11:05;;;;;;;3.40;3.10;;;10.40;99.90;;;;;;5092823;28;20489;-74
2022/04/15 12:13:34;;;;;;;3.40;3.10;;;10.30;99.90;;;;;;5092552;28;20468;-74
2022/04/15 12:16:01;;;;;;;2.50;2.30;;;10.30;99.90;;;;;;5092818;28;20898;-74
2022/04/15 12:18:27;;;;;;;3.13;2.87;;;10.30;99.90;;;;;;5092469;28;20777;-75
2022/04/15 12:20:54;;;;;;;3.43;3.00;;;10.30;99.90;;;;;;5092400;28;20472;-75
2022/04/15 12:23:25;;;;;;;4.63;3.10;;;10.30;99.90;;;;;;5092470;28;20461;-75
2022/04/15 12:26:09;;;;;;;4.77;3.37;;;10.30;99.90;;;;;;5092378;28;20472;-75
2022/04/15 12:31:28;;;;;;;4.47;2.93;;;10.30;99.90;;;;;;5092279;28;20544;-75
2022/04/15 12:33:55;;;;;;;3.30;3.00;;;10.30;99.90;;;;;;5093323;28;20728;-74
2022/04/15 12:36:22;;;;;;;3.37;3.07;;;10.40;99.90;;;;;;5096484;28;20449;-75
2022/04/15 12:39:00;;;;;;;4.17;3.20;;;10.40;99.90;;;;;;5095950;28;20457;-74
2022/04/15 12:41:38;;;;;;;3.40;3.10;;;10.50;99.90;;;;;;5095761;28;20457;-74
2022/04/15 12:44:17;;;;;;;4.17;2.77;;;10.60;99.90;;;;;;5095935;28;20831;-75
2022/04/15 12:46:45;;;;;;;4.43;2.90;;;10.60;99.90;;;;;;5095842;28;20782;-74
2022/04/15 12:49:26;;;;;;;3.20;2.90;;;10.70;99.90;;;;;;5095519;28;20468;-75
2022/04/15 12:51:53;;;;;;;5.87;2.50;;;10.80;99.90;;;;;;5095791;28;20471;-74
2022/04/15 12:54:21;;;;;;;2.80;2.60;;;10.90;99.90;;;;;;5095612;28;20563;-74